Airfield :
LOGIN :

Register | Disclaimer

   EN    FR    IT 

 










Legend :    VFR   Marginal VFR   IFR   Intensive IFR   Very Intensive IFR
Visi :
Ceiling :
>= 8 km
>= 3000ft
5 to 8 km
1000 to 3000 ft
1500m to 5 km
500 to 1000 ft
800 to 1500m
200 to 500 ft
< 800m
< 200 ft
Symbols :   Thunderstorms  Fog  Heavy snow  Heavy precipitations  Wind > 20 kt
SIGMETs :     Misc.  Thunderstorms  Icing  Turbulence  Mountain Waves  Volcanic Ashes







- Airport Elevation : 423 ft
- IATA code : PIS
- Download approach charts


LFBI - Poitiers

CURRENT METAR :
  • 201500Z AUTO 20005KT 9999 BKN024 OVC031 05/M00 Q1002 NOSIG

EXPIRED METARs :
  • 201430Z AUTO 27003KT 210V360 9999 FEW034 BKN054 06/M01 Q1002 NOSIG
  • 201400Z AUTO 24005KT 210V270 9999 SCT025 BKN034 BKN052 05/M01 Q1002 NOSIG
  • 201330Z AUTO 33004KT 290V360 9999 FEW021 SCT026 BKN035 04/M00 Q1002 NOSIG
  • 201300Z AUTO VRB02KT 9999 FEW020 04/M01 Q1002 NOSIG
  • 201230Z AUTO VRB02KT 9999 BKN019 05/00 Q1002 NOSIG

TAF TAF LFBI
Valid from the 20 at 12:00 until the 21 at 12:00 UTC


201100Z 2012/2112 VRB02KT 9999 BKN008
BECMG 2012/2013 BKN020
BECMG 2016/2018 CAVOK
TEMPO 2020/2108 4000 BR
PROB30
TEMPO 2100/2108 0500 BCFG
No reported NOTAMs for that airfield.



MET'MAP, your aeronautical weather chart ! - Copyright ORBIFLY December 2007 - Disclaimer

ORBIFLY MET'MAP TEAM :

Programming & Development : Alexandra Zaïnal
Concept & Development : Baudouin d'Aumeries
Co-Development & Prog : Marc-Olivier Méhu
Technical & hardware support : Manuel Goepfert

Contact : metmap@orbifly.com




SOURCES & CREDITS :

   NOAA